createdAt,value
2023-03-18T00:01:48.107Z,16.65
2023-03-18T00:04:15.258Z,16.05
2023-03-18T00:06:43.738Z,15.90
2023-03-18T00:09:12.496Z,14.55
2023-03-18T00:11:40.758Z,17.83
2023-03-18T00:14:09.742Z,17.00
2023-03-18T00:16:37.451Z,15.35
2023-03-18T00:19:05.012Z,17.85
2023-03-18T00:21:32.680Z,14.43
2023-03-18T00:24:00.733Z,16.42
2023-03-18T00:26:29.258Z,18.70
2023-03-18T00:28:57.564Z,18.00
2023-03-18T00:31:25.855Z,17.75
2023-03-18T00:33:53.082Z,16.35
2023-03-18T00:36:25.770Z,14.57
2023-03-18T00:38:57.797Z,18.00
2023-03-18T00:41:27.478Z,18.23
2023-03-18T00:43:55.410Z,18.10
2023-03-18T00:46:25.142Z,16.98
2023-03-18T00:49:05.200Z,15.18
2023-03-18T00:51:34.809Z,13.32
2023-03-18T00:54:07.267Z,18.05
2023-03-18T00:56:37.847Z,16.27
2023-03-18T00:59:07.420Z,15.40
2023-03-18T01:01:36.834Z,17.58
2023-03-18T01:04:04.553Z,17.27
2023-03-18T01:06:35.118Z,15.02
2023-03-18T01:09:04.736Z,13.52
2023-03-18T01:11:32.179Z,14.40
2023-03-18T01:14:00.663Z,17.17
2023-03-18T01:16:28.204Z,16.75
2023-03-18T01:18:55.690Z,16.02
2023-03-18T01:21:22.838Z,16.05
2023-03-18T01:23:54.804Z,16.35
2023-03-18T01:26:22.284Z,17.00
2023-03-18T01:28:50.001Z,14.43
2023-03-18T01:31:17.252Z,17.88
2023-03-18T01:33:46.512Z,15.95
2023-03-18T01:36:15.625Z,13.82
2023-03-18T01:38:44.337Z,18.70
2023-03-18T01:41:14.724Z,17.80
2023-03-18T01:43:43.389Z,17.77
2023-03-18T01:46:32.616Z,18.25
2023-03-18T01:49:03.024Z,13.48
2023-03-18T01:51:31.212Z,17.13
2023-03-18T01:54:01.098Z,16.83
2023-03-18T01:56:28.698Z,15.65
2023-03-18T01:58:58.982Z,16.73
2023-03-18T02:01:33.814Z,13.07
2023-03-18T02:04:09.238Z,14.70
2023-03-18T02:06:39.613Z,15.30
2023-03-18T02:09:09.139Z,16.45
2023-03-18T02:11:39.832Z,13.85
2023-03-18T02:14:09.809Z,14.23
2023-03-18T02:16:45.455Z,13.45
2023-03-18T02:19:49.268Z,13.82
2023-03-18T02:22:28.158Z,13.35
2023-03-18T02:25:20.612Z,16.50
2023-03-18T02:27:54.794Z,15.27
2023-03-18T02:30:27.327Z,15.25
2023-03-18T02:32:59.056Z,15.35
2023-03-18T02:35:29.298Z,15.25
2023-03-18T02:37:59.429Z,15.10
2023-03-18T02:40:32.045Z,13.80
2023-03-18T02:43:20.330Z,15.57
2023-03-18T02:46:13.283Z,16.60
2023-03-18T02:48:44.552Z,17.70
2023-03-18T02:51:14.671Z,14.35
2023-03-18T02:53:42.966Z,16.17
2023-03-18T02:56:10.790Z,15.77
2023-03-18T02:58:39.966Z,15.73
2023-03-18T03:01:08.398Z,18.05
2023-03-18T03:03:36.558Z,17.95
2023-03-18T03:06:04.504Z,18.27
2023-03-18T03:08:31.815Z,17.35
2023-03-18T03:10:59.576Z,17.23
2023-03-18T03:13:29.513Z,17.70
2023-03-18T03:15:57.393Z,15.32
2023-03-18T03:18:25.514Z,17.20
2023-03-18T03:20:53.531Z,19.65
2023-03-18T03:23:21.444Z,15.52
2023-03-18T03:25:49.348Z,15.55
2023-03-18T03:28:17.323Z,14.63
2023-03-18T03:30:45.562Z,18.05
2023-03-18T03:33:13.590Z,16.65
2023-03-18T03:35:41.784Z,16.88
2023-03-18T03:38:09.504Z,14.18
2023-03-18T03:40:37.396Z,15.63
2023-03-18T03:43:05.686Z,15.63
2023-03-18T03:45:33.772Z,10.80
2023-03-18T03:48:01.087Z,12.60
2023-03-18T03:50:28.672Z,13.35
2023-03-18T03:52:56.086Z,17.40
2023-03-18T03:55:23.967Z,15.70
2023-03-18T03:57:54.063Z,31.95
2023-03-18T04:00:23.501Z,15.18
2023-03-18T04:02:52.439Z,14.80
2023-03-18T04:05:23.703Z,14.00
2023-03-18T04:07:52.434Z,13.95
2023-03-18T04:10:27.476Z,12.57
2023-03-18T04:12:55.116Z,16.33
2023-03-18T04:15:22.903Z,13.07
2023-03-18T04:17:53.366Z,16.02
2023-03-18T04:20:21.585Z,15.82
2023-03-18T04:22:49.510Z,14.77
2023-03-18T04:25:19.636Z,13.13
2023-03-18T04:27:52.595Z,14.73
2023-03-18T04:30:20.871Z,15.77
2023-03-18T04:32:57.092Z,15.40
2023-03-18T04:35:24.554Z,16.65
2023-03-18T04:37:51.693Z,14.75
2023-03-18T04:40:20.115Z,17.95
2023-03-18T04:42:48.015Z,14.70
2023-03-18T04:45:17.858Z,16.85
2023-03-18T04:47:45.607Z,14.90
2023-03-18T04:50:14.608Z,15.27
2023-03-18T04:52:43.739Z,17.05
2023-03-18T04:55:16.492Z,15.13
2023-03-18T04:57:44.617Z,18.60
2023-03-18T05:00:21.535Z,20.17
2023-03-18T05:02:52.548Z,14.13
2023-03-18T05:05:22.755Z,14.63
2023-03-18T05:07:52.180Z,15.63
2023-03-18T05:10:21.196Z,14.18
2023-03-18T05:12:48.774Z,16.08
2023-03-18T05:15:19.673Z,13.13
2023-03-18T05:17:53.026Z,15.27
2023-03-18T05:20:20.632Z,14.80
2023-03-18T05:22:48.348Z,14.05
2023-03-18T05:25:26.429Z,12.68
2023-03-18T05:27:54.643Z,15.20
2023-03-18T05:30:34.670Z,14.85
2023-03-18T05:33:01.843Z,12.75
2023-03-18T05:35:41.596Z,13.43
2023-03-18T05:38:09.005Z,18.17
2023-03-18T05:40:37.573Z,17.23
2023-03-18T05:45:46.317Z,17.55
2023-03-18T05:48:16.417Z,29.77
2023-03-18T05:50:52.089Z,25.73
2023-03-18T05:53:23.669Z,19.05
2023-03-18T05:55:58.324Z,19.77
2023-03-18T05:58:31.331Z,15.90
2023-03-18T06:01:14.166Z,14.93
2023-03-18T06:03:42.912Z,16.50
2023-03-18T06:06:10.068Z,14.52
2023-03-18T06:08:37.980Z,15.05
2023-03-18T06:11:05.494Z,16.08
2023-03-18T06:13:33.356Z,16.95
2023-03-18T06:16:01.500Z,16.65
2023-03-18T06:18:30.749Z,16.85
2023-03-18T06:20:57.796Z,17.63
2023-03-18T06:23:25.077Z,15.65
2023-03-18T06:25:53.140Z,15.82
2023-03-18T06:28:26.427Z,19.27
2023-03-18T06:30:58.163Z,14.68
2023-03-18T06:33:26.244Z,19.42
2023-03-18T06:35:55.141Z,20.67
2023-03-18T06:38:23.031Z,34.85
2023-03-18T06:40:51.424Z,17.52
2023-03-18T06:43:18.856Z,21.88
2023-03-18T06:45:46.596Z,19.95
2023-03-18T06:48:14.140Z,15.93
2023-03-18T06:50:44.191Z,15.20
2023-03-18T06:53:21.372Z,15.27
2023-03-18T06:55:49.854Z,19.85
2023-03-18T06:58:20.486Z,16.80
2023-03-18T07:00:59.008Z,15.60
2023-03-18T07:03:30.613Z,15.63
2023-03-18T07:05:58.047Z,13.45
2023-03-18T07:08:25.525Z,15.23
2023-03-18T07:10:56.981Z,14.35
2023-03-18T07:13:25.423Z,13.45
2023-03-18T07:15:56.612Z,16.98
2023-03-18T07:18:24.936Z,14.73
2023-03-18T07:20:52.717Z,13.32
2023-03-18T07:23:22.203Z,13.40
2023-03-18T07:25:49.845Z,16.35
2023-03-18T07:28:20.165Z,16.15
2023-03-18T07:30:47.572Z,13.65
2023-03-18T07:33:15.856Z,15.10
2023-03-18T07:35:45.612Z,14.02
2023-03-18T07:38:12.900Z,14.63
2023-03-18T07:40:40.115Z,17.23
2023-03-18T07:43:07.506Z,13.57
2023-03-18T07:45:34.980Z,12.52
2023-03-18T07:48:02.140Z,13.38
2023-03-18T07:50:29.274Z,13.50
2023-03-18T07:52:57.153Z,14.32
2023-03-18T07:55:24.572Z,12.55
2023-03-18T07:57:51.700Z,12.50
2023-03-18T08:00:19.432Z,13.65
2023-03-18T08:02:46.685Z,12.85
2023-03-18T08:05:14.527Z,15.88
2023-03-18T08:07:42.766Z,14.05
2023-03-18T08:10:11.493Z,12.95
2023-03-18T08:12:52.062Z,14.45
2023-03-18T08:15:20.260Z,16.73
2023-03-18T08:17:47.412Z,13.48
2023-03-18T08:20:15.554Z,16.90
2023-03-18T08:22:42.754Z,11.27
2023-03-18T08:25:11.659Z,16.42
2023-03-18T08:27:38.714Z,12.73
2023-03-18T08:30:07.080Z,12.80
2023-03-18T08:32:34.942Z,15.73
2023-03-18T08:35:02.729Z,15.15
2023-03-18T08:37:29.825Z,11.85
2023-03-18T08:39:56.912Z,13.82
2023-03-18T08:42:24.203Z,16.38
2023-03-18T08:44:51.315Z,14.35
2023-03-18T08:47:18.444Z,14.15
2023-03-18T08:49:45.617Z,16.83
2023-03-18T08:52:12.959Z,18.38
2023-03-18T08:54:40.059Z,16.45
2023-03-18T08:57:07.115Z,19.45
2023-03-18T08:59:34.179Z,16.95
2023-03-18T09:02:01.343Z,15.13
2023-03-18T09:04:29.400Z,22.58
2023-03-18T09:06:57.253Z,15.32
2023-03-18T09:09:31.093Z,18.17
2023-03-18T09:12:05.726Z,17.50
2023-03-18T09:14:33.289Z,16.63
2023-03-18T09:17:01.094Z,17.55
2023-03-18T09:19:28.676Z,17.73
2023-03-18T09:21:56.152Z,16.45
2023-03-18T09:24:23.168Z,17.00
2023-03-18T09:26:50.376Z,14.60
2023-03-18T09:29:17.318Z,21.08
2023-03-18T09:31:45.271Z,17.10
2023-03-18T09:34:13.709Z,15.27
2023-03-18T09:36:42.234Z,19.38
2023-03-18T09:39:10.175Z,20.95
2023-03-18T09:41:54.855Z,14.70
2023-03-18T09:44:26.853Z,16.15
2023-03-18T09:47:15.766Z,15.73
2023-03-18T09:49:43.065Z,18.38
2023-03-18T09:52:34.031Z,18.77
2023-03-18T09:55:04.933Z,17.25
2023-03-18T09:57:39.006Z,20.52
2023-03-18T10:00:16.132Z,16.77
2023-03-18T10:02:50.617Z,20.05
2023-03-18T10:05:26.577Z,19.13
2023-03-18T10:07:57.426Z,17.17
2023-03-18T10:10:29.618Z,18.25
2023-03-18T10:13:08.570Z,17.75
2023-03-18T10:15:42.879Z,16.95
2023-03-18T10:18:17.091Z,19.60
2023-03-18T10:21:04.361Z,16.20
2023-03-18T10:23:34.917Z,21.05
2023-03-18T10:26:10.142Z,17.17
2023-03-18T10:28:57.891Z,18.33
2023-03-18T10:31:45.839Z,16.55
2023-03-18T10:34:13.349Z,17.15
2023-03-18T10:37:05.719Z,16.58
2023-03-18T10:39:35.370Z,15.73
2023-03-18T10:42:27.404Z,16.67
2023-03-18T10:45:03.727Z,18.35
2023-03-18T10:47:36.148Z,22.17
2023-03-18T10:50:28.668Z,15.88
2023-03-18T10:52:59.514Z,18.10
2023-03-18T10:55:32.925Z,20.45
2023-03-18T10:58:01.752Z,22.73
2023-03-18T11:00:33.515Z,17.17
2023-03-18T11:03:02.736Z,16.55
2023-03-18T11:05:35.151Z,17.63
2023-03-18T11:08:09.192Z,16.40
2023-03-18T11:10:40.590Z,18.17
2023-03-18T11:13:07.708Z,17.23
2023-03-18T11:15:40.448Z,16.80
2023-03-18T11:18:18.324Z,16.67
2023-03-18T11:20:49.356Z,20.45
2023-03-18T11:23:57.296Z,23.33
2023-03-18T11:26:27.840Z,17.45
2023-03-18T11:29:05.141Z,18.70
2023-03-18T11:31:32.512Z,15.85
2023-03-18T11:34:00.649Z,18.58
2023-03-18T11:36:28.481Z,21.20
2023-03-18T11:39:04.341Z,20.00
2023-03-18T11:41:31.476Z,17.25
2023-03-18T11:44:19.663Z,21.02
2023-03-18T11:46:54.906Z,16.73
2023-03-18T11:49:25.340Z,17.63
2023-03-18T11:52:22.414Z,18.23
2023-03-18T11:55:18.123Z,19.38
2023-03-18T11:58:20.400Z,16.73
2023-03-18T12:00:52.834Z,17.35
2023-03-18T12:03:55.451Z,21.52
2023-03-18T12:06:28.682Z,26.08
2023-03-18T12:09:15.645Z,17.38
2023-03-18T12:12:07.077Z,18.63
2023-03-18T12:14:38.982Z,22.20
2023-03-18T12:17:13.470Z,23.63
2023-03-18T12:20:02.948Z,21.77
2023-03-18T12:22:45.603Z,18.67
2023-03-18T12:25:22.809Z,19.70
2023-03-18T12:27:57.897Z,19.50
2023-03-18T12:30:40.966Z,20.05
2023-03-18T12:33:31.672Z,19.52
2023-03-18T12:36:14.642Z,19.15
2023-03-18T12:38:43.040Z,17.67
2023-03-18T12:41:37.112Z,18.58
2023-03-18T12:44:11.886Z,16.43
2023-03-18T12:46:46.977Z,19.58
2023-03-18T12:49:19.866Z,20.60
2023-03-18T12:51:54.472Z,18.10
2023-03-18T12:54:29.323Z,20.20
2023-03-18T12:57:04.124Z,19.67
2023-03-18T12:59:38.914Z,17.60
2023-03-18T13:02:26.417Z,18.35
2023-03-18T13:04:58.826Z,19.35
2023-03-18T13:07:50.923Z,20.20
2023-03-18T13:10:24.404Z,20.10
2023-03-18T13:12:59.710Z,23.63
2023-03-18T13:15:33.064Z,19.98
2023-03-18T13:18:14.884Z,19.35
2023-03-18T13:20:43.809Z,21.90
2023-03-18T13:23:50.692Z,19.38
2023-03-18T13:26:45.271Z,20.83
2023-03-18T13:29:25.155Z,20.45
2023-03-18T13:31:57.970Z,21.52
2023-03-18T13:34:52.536Z,20.45
2023-03-18T13:37:47.326Z,20.00
2023-03-18T13:40:31.869Z,21.70
2023-03-18T13:45:39.708Z,21.10
2023-03-18T13:48:08.801Z,19.00
2023-03-18T13:50:39.939Z,20.23
2023-03-18T13:53:22.221Z,20.83
2023-03-18T13:55:57.857Z,20.15
2023-03-18T13:58:29.913Z,20.65
2023-03-18T14:00:57.171Z,20.02
2023-03-18T14:03:30.816Z,23.38
2023-03-18T14:06:08.922Z,21.93
2023-03-18T14:08:39.736Z,21.45
2023-03-18T14:11:47.865Z,20.05
2023-03-18T14:14:40.477Z,19.17
2023-03-18T14:17:17.722Z,21.00
2023-03-18T14:19:45.410Z,20.50
2023-03-18T14:22:24.075Z,20.60
2023-03-18T14:25:14.674Z,20.48
2023-03-18T14:28:09.981Z,20.25
2023-03-18T14:33:22.900Z,20.08
2023-03-18T14:35:58.144Z,20.38
2023-03-18T14:38:31.675Z,22.60
2023-03-18T14:40:59.993Z,19.38
2023-03-18T14:43:38.001Z,21.25
2023-03-18T14:46:14.584Z,24.92
2023-03-18T14:48:41.867Z,18.08
2023-03-18T14:51:17.801Z,18.60
2023-03-18T14:53:49.196Z,18.40
2023-03-18T14:56:28.991Z,21.42
2023-03-18T14:58:56.844Z,22.25
2023-03-18T15:01:40.054Z,20.42
2023-03-18T15:04:17.958Z,19.23
2023-03-18T15:06:45.724Z,21.45
2023-03-18T15:09:25.744Z,19.25
2023-03-18T15:11:53.865Z,18.35
2023-03-18T15:14:30.398Z,21.65
2023-03-18T15:17:01.890Z,21.88
2023-03-18T15:19:30.747Z,16.42
2023-03-18T15:22:03.460Z,20.27
2023-03-18T15:24:30.936Z,19.77
2023-03-18T15:27:05.858Z,16.25
2023-03-18T15:29:37.198Z,21.60
2023-03-18T15:32:20.590Z,20.50
2023-03-18T15:34:59.018Z,19.52
2023-03-18T15:37:33.768Z,19.75
2023-03-18T15:40:36.985Z,16.77
2023-03-18T15:43:11.512Z,15.32
2023-03-18T15:45:47.281Z,19.00
2023-03-18T15:48:31.768Z,19.00
2023-03-18T15:51:02.274Z,18.73
2023-03-18T15:53:39.378Z,19.13
2023-03-18T15:56:16.469Z,16.40
2023-03-18T15:58:45.194Z,16.80
2023-03-18T16:01:17.953Z,18.40
2023-03-18T16:03:46.748Z,19.85
2023-03-18T16:06:15.032Z,20.83
2023-03-18T16:08:42.769Z,17.48
2023-03-18T16:11:13.133Z,17.88
2023-03-18T16:13:43.206Z,19.60
2023-03-18T16:16:20.988Z,18.95
2023-03-18T16:18:49.068Z,19.60
2023-03-18T16:21:16.281Z,18.85
2023-03-18T16:23:43.664Z,18.27
2023-03-18T16:26:16.895Z,21.05
2023-03-18T16:28:47.897Z,20.33
2023-03-18T16:31:15.778Z,18.85
2023-03-18T16:33:45.277Z,17.15
2023-03-18T16:36:25.057Z,19.67
2023-03-18T16:38:52.512Z,17.83
2023-03-18T16:41:19.793Z,17.77
2023-03-18T16:43:49.158Z,18.85
2023-03-18T16:46:17.654Z,16.80
2023-03-18T16:48:45.075Z,18.83
2023-03-18T16:51:13.111Z,20.60
2023-03-18T16:53:40.225Z,17.48
2023-03-18T16:56:18.077Z,16.23
2023-03-18T16:58:45.636Z,17.85
2023-03-18T17:01:16.597Z,15.95
2023-03-18T17:03:44.304Z,18.45
2023-03-18T17:06:12.757Z,21.27
2023-03-18T17:08:40.249Z,20.02
2023-03-18T17:11:08.035Z,16.50
2023-03-18T17:13:37.924Z,13.30
2023-03-18T17:16:05.462Z,15.75
2023-03-18T17:18:33.357Z,22.63
2023-03-18T17:21:00.948Z,16.52
2023-03-18T17:23:29.003Z,15.55
2023-03-18T17:25:59.720Z,14.50
2023-03-18T17:28:34.812Z,17.08
2023-03-18T17:31:03.131Z,16.25
2023-03-18T17:33:33.087Z,15.57
2023-03-18T17:36:02.081Z,17.85
2023-03-18T17:38:31.212Z,14.82
2023-03-18T17:40:59.647Z,17.42
2023-03-18T17:43:31.806Z,17.45
2023-03-18T17:46:00.693Z,15.77
2023-03-18T17:48:30.300Z,20.27
2023-03-18T17:51:01.016Z,17.77
2023-03-18T17:53:48.223Z,19.33
2023-03-18T17:56:18.537Z,18.95
2023-03-18T17:58:48.953Z,24.23
2023-03-18T18:01:19.729Z,21.55
2023-03-18T18:03:47.904Z,28.00
2023-03-18T18:06:19.480Z,35.80
2023-03-18T18:08:48.389Z,37.85
2023-03-18T18:11:26.127Z,36.42
2023-03-18T18:13:58.041Z,29.98
2023-03-18T18:16:25.301Z,30.52
2023-03-18T18:18:52.841Z,24.48
2023-03-18T18:21:21.955Z,25.77
2023-03-18T18:23:49.138Z,22.30
2023-03-18T18:26:18.591Z,18.60
2023-03-18T18:28:48.499Z,19.58
2023-03-18T18:31:18.100Z,17.77
2023-03-18T18:33:46.879Z,17.65
2023-03-18T18:36:14.485Z,20.10
2023-03-18T18:38:41.720Z,18.98
2023-03-18T18:41:09.452Z,17.83
2023-03-18T18:43:36.473Z,20.70
2023-03-18T18:46:04.368Z,18.80
2023-03-18T18:48:34.624Z,20.02
2023-03-18T18:51:04.283Z,24.48
2023-03-18T18:53:36.779Z,21.15
2023-03-18T18:56:25.391Z,23.50
2023-03-18T18:58:52.993Z,24.17
2023-03-18T19:01:20.115Z,22.63
2023-03-18T19:03:48.358Z,27.33
2023-03-18T19:06:29.299Z,22.33
2023-03-18T19:08:58.366Z,23.05
2023-03-18T19:11:27.323Z,25.67
2023-03-18T19:13:57.512Z,24.50
2023-03-18T19:16:26.044Z,26.88
2023-03-18T19:18:54.117Z,28.48
2023-03-18T19:21:22.155Z,26.60
2023-03-18T19:23:50.830Z,24.05
2023-03-18T19:26:19.233Z,24.80
2023-03-18T19:28:56.920Z,29.52
2023-03-18T19:31:27.085Z,24.85
2023-03-18T19:33:54.756Z,25.67
2023-03-18T19:36:40.616Z,23.10
2023-03-18T19:39:14.614Z,23.50
2023-03-18T19:41:42.355Z,19.75
2023-03-18T19:44:19.669Z,25.33
2023-03-18T19:46:48.069Z,24.70
2023-03-18T19:49:21.864Z,25.52
2023-03-18T19:51:50.280Z,16.23
2023-03-18T19:54:35.745Z,26.20
2023-03-18T19:57:12.524Z,27.02
2023-03-18T19:59:40.105Z,27.23
2023-03-18T20:02:17.030Z,21.75
2023-03-18T20:04:44.493Z,21.88
2023-03-18T20:07:11.664Z,18.95
2023-03-18T20:09:39.542Z,20.02
2023-03-18T20:12:10.544Z,20.88
2023-03-18T20:14:39.205Z,21.52
2023-03-18T20:17:29.023Z,15.60
2023-03-18T20:19:57.681Z,17.85
2023-03-18T20:22:28.879Z,16.92
2023-03-18T20:24:56.756Z,20.63
2023-03-18T20:27:24.093Z,19.67
2023-03-18T20:29:51.578Z,24.40
2023-03-18T20:32:18.735Z,18.00
2023-03-18T20:34:47.096Z,19.25
2023-03-18T20:37:34.916Z,18.75
2023-03-18T20:40:13.390Z,19.48
2023-03-18T20:42:41.674Z,19.52
2023-03-18T20:45:15.696Z,26.10
2023-03-18T20:47:44.064Z,16.48
2023-03-18T20:50:14.214Z,21.02
2023-03-18T20:52:44.192Z,17.45
2023-03-18T20:55:21.444Z,25.70
2023-03-18T20:57:49.741Z,28.65
2023-03-18T21:00:19.427Z,19.98
2023-03-18T21:02:47.881Z,16.83
2023-03-18T21:05:15.335Z,23.63
2023-03-18T21:07:43.970Z,17.88
2023-03-18T21:10:18.867Z,19.65
2023-03-18T21:12:46.405Z,20.65
2023-03-18T21:15:20.985Z,22.33
2023-03-18T21:20:22.654Z,22.40
2023-03-18T21:22:50.936Z,27.05
2023-03-18T21:25:26.786Z,20.90
2023-03-18T21:27:54.555Z,22.20
2023-03-18T21:30:24.003Z,20.00
2023-03-18T21:32:51.638Z,20.08
2023-03-18T21:35:23.321Z,20.75
2023-03-18T21:37:51.244Z,17.35
2023-03-18T21:40:21.764Z,17.90
2023-03-18T21:42:50.777Z,19.10
2023-03-18T21:45:21.089Z,20.40
2023-03-18T21:47:48.354Z,17.15
2023-03-18T21:50:24.513Z,18.83
2023-03-18T21:52:53.133Z,16.58
2023-03-18T21:55:21.166Z,19.38
2023-03-18T21:57:49.284Z,16.65
2023-03-18T22:00:20.029Z,15.70
2023-03-18T22:02:47.825Z,17.73
2023-03-18T22:05:18.690Z,18.55
2023-03-18T22:07:46.220Z,25.70
2023-03-18T22:10:18.542Z,22.35
2023-03-18T22:12:45.829Z,18.60
2023-03-18T22:15:34.695Z,19.70
2023-03-18T22:18:02.540Z,16.67
2023-03-18T22:20:30.112Z,18.55
2023-03-18T22:22:57.354Z,16.80
2023-03-18T22:25:25.864Z,21.27
2023-03-18T22:27:52.933Z,24.35
2023-03-18T22:30:20.110Z,20.48
2023-03-18T22:32:47.727Z,17.88
2023-03-18T22:35:17.922Z,20.05
2023-03-18T22:37:46.048Z,18.42
2023-03-18T22:40:18.450Z,19.63
2023-03-18T22:42:50.632Z,21.05
2023-03-18T22:45:21.760Z,20.17
2023-03-18T22:47:51.680Z,18.20
2023-03-18T22:50:19.579Z,20.17
2023-03-18T22:52:49.091Z,19.02
2023-03-18T22:55:21.957Z,19.38
2023-03-18T22:57:50.063Z,17.45
2023-03-18T23:00:30.908Z,18.48
2023-03-18T23:02:58.684Z,21.88
2023-03-18T23:05:26.042Z,17.52
2023-03-18T23:07:54.054Z,18.15
2023-03-18T23:10:21.737Z,18.35
2023-03-18T23:12:48.967Z,21.30
2023-03-18T23:15:18.351Z,18.40
2023-03-18T23:17:46.410Z,16.50
2023-03-18T23:20:15.732Z,19.05
2023-03-18T23:22:43.923Z,20.75
2023-03-18T23:25:16.642Z,17.38
2023-03-18T23:27:44.533Z,21.58
2023-03-18T23:30:13.198Z,20.75
2023-03-18T23:32:41.225Z,20.60
2023-03-18T23:35:09.209Z,19.85
2023-03-18T23:37:36.516Z,21.05
2023-03-18T23:40:05.745Z,22.00
2023-03-18T23:42:32.887Z,22.25
2023-03-18T23:45:00.015Z,24.92
2023-03-18T23:47:27.221Z,25.40
2023-03-18T23:49:54.365Z,26.58
2023-03-18T23:52:21.437Z,25.40
2023-03-18T23:54:49.006Z,22.83
2023-03-18T23:57:16.208Z,19.08
2023-03-18T23:59:43.338Z,16.20
